sensor_id;sensor_type;location;lat;lon;timestamp;pressure;altitude;pressure_sealevel;temperature;humidity
75933;BME280;64803;52.356;5.310;2023-03-04T00:02:00;103014.91;;;16.54;49.86
75933;BME280;64803;52.356;5.310;2023-03-04T00:04:26;103007.91;;;16.51;49.81
75933;BME280;64803;52.356;5.310;2023-03-04T00:06:52;103013.41;;;16.59;50.19
75933;BME280;64803;52.356;5.310;2023-03-04T00:09:18;103009.31;;;16.63;50.38
75933;BME280;64803;52.356;5.310;2023-03-04T00:11:44;103012.72;;;16.65;50.67
75933;BME280;64803;52.356;5.310;2023-03-04T00:14:10;103005.78;;;16.71;50.14
75933;BME280;64803;52.356;5.310;2023-03-04T00:16:36;103006.31;;;16.74;50.07
75933;BME280;64803;52.356;5.310;2023-03-04T00:19:02;103004.63;;;16.73;50.07
75933;BME280;64803;52.356;5.310;2023-03-04T00:21:29;103009.88;;;16.75;50.10
75933;BME280;64803;52.356;5.310;2023-03-04T00:23:55;103008.00;;;16.75;50.18
75933;BME280;64803;52.356;5.310;2023-03-04T00:26:21;103014.44;;;16.74;50.00
75933;BME280;64803;52.356;5.310;2023-03-04T00:28:47;102997.66;;;16.71;50.16
75933;BME280;64803;52.356;5.310;2023-03-04T00:31:13;103004.75;;;16.72;50.23
75933;BME280;64803;52.356;5.310;2023-03-04T00:33:39;102996.09;;;16.68;50.21
75933;BME280;64803;52.356;5.310;2023-03-04T00:36:05;102999.84;;;16.59;49.98
75933;BME280;64803;52.356;5.310;2023-03-04T00:38:31;103001.50;;;16.52;50.89
75933;BME280;64803;52.356;5.310;2023-03-04T00:40:57;103000.31;;;16.55;50.44
75933;BME280;64803;52.356;5.310;2023-03-04T00:43:23;103005.44;;;16.58;50.36
75933;BME280;64803;52.356;5.310;2023-03-04T00:45:49;103004.91;;;16.62;50.20
75933;BME280;64803;52.356;5.310;2023-03-04T00:48:16;103000.19;;;16.64;50.00
75933;BME280;64803;52.356;5.310;2023-03-04T00:50:42;102995.91;;;16.62;50.41
75933;BME280;64803;52.356;5.310;2023-03-04T00:53:09;102989.97;;;16.58;49.94
75933;BME280;64803;52.356;5.310;2023-03-04T00:55:36;103009.19;;;16.73;49.81
75933;BME280;64803;52.356;5.310;2023-03-04T00:58:02;103008.66;;;16.69;49.50
75933;BME280;64803;52.356;5.310;2023-03-04T01:00:28;103006.31;;;16.74;50.53
75933;BME280;64803;52.356;5.310;2023-03-04T01:02:54;103008.00;;;16.75;49.91
75933;BME280;64803;52.356;5.310;2023-03-04T01:05:20;103007.16;;;16.75;49.80
75933;BME280;64803;52.356;5.310;2023-03-04T01:07:46;103004.41;;;16.67;49.88
75933;BME280;64803;52.356;5.310;2023-03-04T01:10:14;103004.22;;;16.60;49.56
75933;BME280;64803;52.356;5.310;2023-03-04T01:12:41;103004.56;;;16.65;49.92
75933;BME280;64803;52.356;5.310;2023-03-04T01:15:11;103002.38;;;16.69;50.32
75933;BME280;64803;52.356;5.310;2023-03-04T01:17:39;103004.94;;;16.70;49.92
75933;BME280;64803;52.356;5.310;2023-03-04T01:20:06;102987.59;;;16.63;49.95
75933;BME280;64803;52.356;5.310;2023-03-04T01:22:32;102994.06;;;16.70;49.64
75933;BME280;64803;52.356;5.310;2023-03-04T01:24:58;102999.19;;;16.73;49.69
75933;BME280;64803;52.356;5.310;2023-03-04T01:27:25;102990.72;;;16.76;50.69
75933;BME280;64803;52.356;5.310;2023-03-04T01:29:51;102988.84;;;16.77;49.64
75933;BME280;64803;52.356;5.310;2023-03-04T01:32:17;102995.63;;;16.81;49.96
75933;BME280;64803;52.356;5.310;2023-03-04T01:34:43;102986.16;;;16.77;49.93
75933;BME280;64803;52.356;5.310;2023-03-04T01:37:09;102986.09;;;16.69;49.53
75933;BME280;64803;52.356;5.310;2023-03-04T01:39:35;102979.81;;;16.68;49.65
75933;BME280;64803;52.356;5.310;2023-03-04T01:42:01;102980.50;;;16.70;49.64
75933;BME280;64803;52.356;5.310;2023-03-04T01:44:27;102984.06;;;16.71;49.62
75933;BME280;64803;52.356;5.310;2023-03-04T01:46:55;102974.91;;;16.72;50.10
75933;BME280;64803;52.356;5.310;2023-03-04T01:49:23;102971.88;;;16.75;49.78
75933;BME280;64803;52.356;5.310;2023-03-04T01:51:52;102975.44;;;16.75;50.03
75933;BME280;64803;52.356;5.310;2023-03-04T01:54:20;102970.84;;;16.76;49.54
75933;BME280;64803;52.356;5.310;2023-03-04T01:56:48;102947.34;;;16.43;49.48
75933;BME280;64803;52.356;5.310;2023-03-04T02:01:52;102970.28;;;16.56;49.45
75933;BME280;64803;52.356;5.310;2023-03-04T02:04:20;102966.25;;;16.60;49.81
75933;BME280;64803;52.356;5.310;2023-03-04T02:06:47;102960.47;;;16.63;50.07
75933;BME280;64803;52.356;5.310;2023-03-04T02:09:15;102961.81;;;16.51;49.71
75933;BME280;64803;52.356;5.310;2023-03-04T02:11:42;102959.06;;;16.43;49.62
75933;BME280;64803;52.356;5.310;2023-03-04T02:14:10;102961.59;;;16.45;50.10
75933;BME280;64803;52.356;5.310;2023-03-04T02:16:36;102945.53;;;16.51;50.03
75933;BME280;64803;52.356;5.310;2023-03-04T02:19:06;102948.59;;;16.56;50.10
75933;BME280;64803;52.356;5.310;2023-03-04T02:21:35;102949.97;;;16.60;50.04
75933;BME280;64803;52.356;5.310;2023-03-04T02:26:33;102938.13;;;16.69;49.85
75933;BME280;64803;52.356;5.310;2023-03-04T02:29:01;102932.00;;;16.67;49.91
75933;BME280;64803;52.356;5.310;2023-03-04T02:31:32;102934.72;;;16.67;49.11
75933;BME280;64803;52.356;5.310;2023-03-04T02:34:02;102921.66;;;16.63;49.60
75933;BME280;64803;52.356;5.310;2023-03-04T02:36:29;102923.53;;;16.62;50.12
75933;BME280;64803;52.356;5.310;2023-03-04T02:39:03;102922.16;;;16.58;49.66
75933;BME280;64803;52.356;5.310;2023-03-04T02:41:30;102918.53;;;16.42;49.82
75933;BME280;64803;52.356;5.310;2023-03-04T02:43:57;102917.06;;;16.47;50.00
75933;BME280;64803;52.356;5.310;2023-03-04T02:46:23;102916.38;;;16.53;50.02
75933;BME280;64803;52.356;5.310;2023-03-04T02:48:50;102915.38;;;16.62;50.31
75933;BME280;64803;52.356;5.310;2023-03-04T02:51:16;102902.34;;;16.66;50.09
75933;BME280;64803;52.356;5.310;2023-03-04T02:53:42;102913.88;;;16.68;49.88
75933;BME280;64803;52.356;5.310;2023-03-04T02:56:08;102903.03;;;16.68;49.99
75933;BME280;64803;52.356;5.310;2023-03-04T02:58:36;102896.75;;;16.67;49.56
75933;BME280;64803;52.356;5.310;2023-03-04T03:01:07;102912.84;;;16.69;50.07
75933;BME280;64803;52.356;5.310;2023-03-04T03:03:33;102893.34;;;16.65;50.31
75933;BME280;64803;52.356;5.310;2023-03-04T03:05:59;102891.31;;;16.67;49.91
75933;BME280;64803;52.356;5.310;2023-03-04T03:08:26;102896.41;;;16.70;49.89
75933;BME280;64803;52.356;5.310;2023-03-04T03:10:53;102890.44;;;16.67;49.85
75933;BME280;64803;52.356;5.310;2023-03-04T03:13:19;102894.16;;;16.50;49.98
75933;BME280;64803;52.356;5.310;2023-03-04T03:15:45;102891.59;;;16.40;50.53
75933;BME280;64803;52.356;5.310;2023-03-04T03:18:12;102885.66;;;16.45;50.20
75933;BME280;64803;52.356;5.310;2023-03-04T03:20:38;102893.16;;;16.51;50.54
75933;BME280;64803;52.356;5.310;2023-03-04T03:23:04;102882.66;;;16.56;50.43
75933;BME280;64803;52.356;5.310;2023-03-04T03:25:30;102882.47;;;16.49;50.30
75933;BME280;64803;52.356;5.310;2023-03-04T03:27:56;102888.91;;;16.48;49.66
75933;BME280;64803;52.356;5.310;2023-03-04T03:30:22;102887.22;;;16.47;50.73
75933;BME280;64803;52.356;5.310;2023-03-04T03:32:48;102890.47;;;16.51;50.47
75933;BME280;64803;52.356;5.310;2023-03-04T03:35:14;102876.38;;;16.55;50.79
75933;BME280;64803;52.356;5.310;2023-03-04T03:37:40;102877.75;;;16.59;50.63
75933;BME280;64803;52.356;5.310;2023-03-04T03:40:07;102872.84;;;16.63;50.97
75933;BME280;64803;52.356;5.310;2023-03-04T03:42:33;102876.06;;;16.66;50.59
75933;BME280;64803;52.356;5.310;2023-03-04T03:44:59;102878.78;;;16.66;50.53
75933;BME280;64803;52.356;5.310;2023-03-04T03:47:25;102877.56;;;16.69;50.79
75933;BME280;64803;52.356;5.310;2023-03-04T03:49:51;102870.63;;;16.66;50.78
75933;BME280;64803;52.356;5.310;2023-03-04T03:52:17;102879.28;;;16.70;50.32
75933;BME280;64803;52.356;5.310;2023-03-04T03:54:43;102878.25;;;16.71;49.78
75933;BME280;64803;52.356;5.310;2023-03-04T03:57:09;102879.28;;;16.70;50.20
75933;BME280;64803;52.356;5.310;2023-03-04T03:59:35;102877.75;;;16.67;50.38
75933;BME280;64803;52.356;5.310;2023-03-04T04:02:01;102877.56;;;16.69;50.33
75933;BME280;64803;52.356;5.310;2023-03-04T04:04:28;102882.84;;;16.62;49.95
75933;BME280;64803;52.356;5.310;2023-03-04T04:06:54;102880.59;;;16.50;49.88
75933;BME280;64803;52.356;5.310;2023-03-04T04:09:20;102872.81;;;16.55;50.69
75933;BME280;64803;52.356;5.310;2023-03-04T04:11:46;102878.06;;;16.56;50.05
75933;BME280;64803;52.356;5.310;2023-03-04T04:14:13;102866.38;;;16.56;50.16
75933;BME280;64803;52.356;5.310;2023-03-04T04:16:39;102874.66;;;16.46;49.54
75933;BME280;64803;52.356;5.310;2023-03-04T04:19:05;102878.53;;;16.44;49.89
75933;BME280;64803;52.356;5.310;2023-03-04T04:21:32;102882.59;;;16.40;49.90
75933;BME280;64803;52.356;5.310;2023-03-04T04:23:58;102880.22;;;16.45;50.23
75933;BME280;64803;52.356;5.310;2023-03-04T04:26:24;102875.34;;;16.48;50.39
75933;BME280;64803;52.356;5.310;2023-03-04T04:28:50;102860.63;;;16.51;50.07
75933;BME280;64803;52.356;5.310;2023-03-04T04:31:16;102860.09;;;16.55;50.31
75933;BME280;64803;52.356;5.310;2023-03-04T04:33:42;102871.59;;;16.49;49.62
75933;BME280;64803;52.356;5.310;2023-03-04T04:36:12;102859.69;;;16.42;50.11
75933;BME280;64803;52.356;5.310;2023-03-04T04:38:39;102872.97;;;16.53;50.32
75933;BME280;64803;52.356;5.310;2023-03-04T04:41:19;102874.69;;;16.54;50.12
75933;BME280;64803;52.356;5.310;2023-03-04T04:43:45;102867.56;;;16.53;49.88
75933;BME280;64803;52.356;5.310;2023-03-04T04:46:11;102868.94;;;16.57;50.21
75933;BME280;64803;52.356;5.310;2023-03-04T04:48:37;102870.28;;;16.61;50.11
75933;BME280;64803;52.356;5.310;2023-03-04T04:51:03;102872.63;;;16.56;50.38
75933;BME280;64803;52.356;5.310;2023-03-04T04:53:30;102844.28;;;16.43;50.56
75933;BME280;64803;52.356;5.310;2023-03-04T04:55:56;102866.38;;;16.56;50.45
75933;BME280;64803;52.356;5.310;2023-03-04T04:58:22;102870.59;;;16.58;50.40
75933;BME280;64803;52.356;5.310;2023-03-04T05:00:48;102866.91;;;16.59;50.44
75933;BME280;64803;52.356;5.310;2023-03-04T05:03:14;102876.19;;;16.65;50.77
75933;BME280;64803;52.356;5.310;2023-03-04T05:05:40;102869.09;;;16.64;50.73
75933;BME280;64803;52.356;5.310;2023-03-04T05:08:06;102867.94;;;16.66;50.52
75933;BME280;64803;52.356;5.310;2023-03-04T05:10:32;102859.44;;;16.61;51.15
75933;BME280;64803;52.356;5.310;2023-03-04T05:12:59;102864.00;;;16.69;50.74
75933;BME280;64803;52.356;5.310;2023-03-04T05:15:24;102860.44;;;16.68;51.09
75933;BME280;64803;52.356;5.310;2023-03-04T05:17:50;102832.13;;;16.55;51.00
75933;BME280;64803;52.356;5.310;2023-03-04T05:20:16;102857.06;;;16.66;51.07
75933;BME280;64803;52.356;5.310;2023-03-04T05:22:42;102866.22;;;16.65;50.81
75933;BME280;64803;52.356;5.310;2023-03-04T05:25:09;102864.19;;;16.67;51.41
75933;BME280;64803;52.356;5.310;2023-03-04T05:27:35;102870.28;;;16.69;51.15
75933;BME280;64803;52.356;5.310;2023-03-04T05:30:01;102863.00;;;16.70;50.99
75933;BME280;64803;52.356;5.310;2023-03-04T05:32:27;102863.53;;;16.73;51.72
75933;BME280;64803;52.356;5.310;2023-03-04T05:34:53;102867.75;;;16.76;51.44
75933;BME280;64803;52.356;5.310;2023-03-04T05:37:19;102870.97;;;16.79;51.47
75933;BME280;64803;52.356;5.310;2023-03-04T05:39:45;102872.81;;;16.79;51.06
75933;BME280;64803;52.356;5.310;2023-03-04T05:42:11;102873.69;;;16.79;51.38
75933;BME280;64803;52.356;5.310;2023-03-04T05:44:37;102867.41;;;16.79;51.82
75933;BME280;64803;52.356;5.310;2023-03-04T05:47:03;102868.59;;;16.76;52.04
75933;BME280;64803;52.356;5.310;2023-03-04T05:49:29;102868.59;;;16.76;51.69
75933;BME280;64803;52.356;5.310;2023-03-04T05:51:55;102870.97;;;16.79;51.54
75933;BME280;64803;52.356;5.310;2023-03-04T05:54:21;102873.69;;;16.79;51.87
75933;BME280;64803;52.356;5.310;2023-03-04T05:56:47;102873.69;;;16.79;51.80
75933;BME280;64803;52.356;5.310;2023-03-04T05:59:13;102870.97;;;16.79;52.00
75933;BME280;64803;52.356;5.310;2023-03-04T06:01:46;102870.63;;;16.82;51.95
75933;BME280;64803;52.356;5.310;2023-03-04T06:04:12;102875.41;;;16.80;51.52
75933;BME280;64803;52.356;5.310;2023-03-04T06:06:38;102871.31;;;16.84;51.64
75933;BME280;64803;52.356;5.310;2023-03-04T06:09:04;102873.00;;;16.85;51.72
75933;BME280;64803;52.356;5.310;2023-03-04T06:11:30;102863.84;;;16.86;51.80
75933;BME280;64803;52.356;5.310;2023-03-04T06:13:56;102862.16;;;16.85;51.72
75933;BME280;64803;52.356;5.310;2023-03-04T06:16:21;102860.78;;;16.81;52.04
75933;BME280;64803;52.356;5.310;2023-03-04T06:18:47;102867.06;;;16.82;51.98
75933;BME280;64803;52.356;5.310;2023-03-04T06:21:13;102857.03;;;16.82;52.10
75933;BME280;64803;52.356;5.310;2023-03-04T06:23:40;102865.88;;;16.84;52.25
75933;BME280;64803;52.356;5.310;2023-03-04T06:26:06;102869.28;;;16.86;52.17
75933;BME280;64803;52.356;5.310;2023-03-04T06:28:36;102866.88;;;16.92;55.42
75933;BME280;64803;52.356;5.310;2023-03-04T06:31:02;102865.84;;;17.09;58.53
75933;BME280;64803;52.356;5.310;2023-03-04T06:33:28;102869.56;;;17.32;59.03
75933;BME280;64803;52.356;5.310;2023-03-04T06:35:55;102874.13;;;17.47;58.96
75933;BME280;64803;52.356;5.310;2023-03-04T06:38:22;102871.91;;;17.59;58.69
75933;BME280;64803;52.356;5.310;2023-03-04T06:40:48;102879.66;;;17.70;58.63
75933;BME280;64803;52.356;5.310;2023-03-04T06:43:14;102868.78;;;17.78;58.42
75933;BME280;64803;52.356;5.310;2023-03-04T06:45:40;102876.72;;;17.87;57.89
75933;BME280;64803;52.356;5.310;2023-03-04T06:48:06;102875.34;;;17.91;57.84
75933;BME280;64803;52.356;5.310;2023-03-04T06:50:32;102875.16;;;17.93;57.67
75933;BME280;64803;52.356;5.310;2023-03-04T06:52:58;102883.63;;;17.98;57.51
75933;BME280;64803;52.356;5.310;2023-03-04T06:55:24;102877.00;;;18.01;57.53
75933;BME280;64803;52.356;5.310;2023-03-04T06:57:50;102874.97;;;18.03;57.44
75933;BME280;64803;52.356;5.310;2023-03-04T07:00:17;102875.47;;;18.06;57.38
75933;BME280;64803;52.356;5.310;2023-03-04T07:02:44;102885.13;;;18.09;57.24
75933;BME280;64803;52.356;5.310;2023-03-04T07:05:10;102887.34;;;18.05;57.57
75933;BME280;64803;52.356;5.310;2023-03-04T07:07:37;102881.41;;;18.02;57.63
75933;BME280;64803;52.356;5.310;2023-03-04T07:10:03;102887.03;;;18.00;58.35
75933;BME280;64803;52.356;5.310;2023-03-04T07:12:29;102885.34;;;17.99;58.56
75933;BME280;64803;52.356;5.310;2023-03-04T07:14:55;102884.00;;;17.95;58.48
75933;BME280;64803;52.356;5.310;2023-03-04T07:17:21;102879.78;;;17.84;57.27
75933;BME280;64803;52.356;5.310;2023-03-04T07:19:47;102881.38;;;17.71;57.83
75933;BME280;64803;52.356;5.310;2023-03-04T07:22:13;102878.34;;;17.66;57.91
75933;BME280;64803;52.356;5.310;2023-03-04T07:24:39;102891.59;;;17.61;57.64
75933;BME280;64803;52.356;5.310;2023-03-04T07:27:05;102882.28;;;17.55;57.00
75933;BME280;64803;52.356;5.310;2023-03-04T07:29:31;102880.44;;;17.48;56.88
75933;BME280;64803;52.356;5.310;2023-03-04T07:31:57;102891.28;;;17.48;56.76
75933;BME280;64803;52.356;5.310;2023-03-04T07:34:23;102895.00;;;17.39;56.57
75933;BME280;64803;52.356;5.310;2023-03-04T07:36:49;102894.34;;;17.37;56.46
75933;BME280;64803;52.356;5.310;2023-03-04T07:39:15;102890.09;;;17.34;56.28
75933;BME280;64803;52.356;5.310;2023-03-04T07:41:41;102886.56;;;17.26;55.71
75933;BME280;64803;52.356;5.310;2023-03-04T07:44:07;102897.25;;;17.19;55.02
75933;BME280;64803;52.356;5.310;2023-03-04T07:46:34;102895.41;;;17.12;54.88
75933;BME280;64803;52.356;5.310;2023-03-04T07:49:00;102906.56;;;17.09;55.00
75933;BME280;64803;52.356;5.310;2023-03-04T07:51:26;102892.34;;;17.07;54.59
75933;BME280;64803;52.356;5.310;2023-03-04T07:53:56;102892.66;;;17.04;55.10
75933;BME280;64803;52.356;5.310;2023-03-04T07:56:25;102897.44;;;17.10;54.80
75933;BME280;64803;52.356;5.310;2023-03-04T07:58:52;102896.56;;;17.09;54.26
75933;BME280;64803;52.356;5.310;2023-03-04T08:01:21;102893.00;;;17.09;54.11
75933;BME280;64803;52.356;5.310;2023-03-04T08:03:47;102894.91;;;17.08;54.37
75933;BME280;64803;52.356;5.310;2023-03-04T08:06:15;102898.13;;;17.12;53.88
75933;BME280;64803;52.356;5.310;2023-03-04T08:08:41;102904.53;;;17.11;53.86
75933;BME280;64803;52.356;5.310;2023-03-04T08:11:11;102913.72;;;17.10;53.95
75933;BME280;64803;52.356;5.310;2023-03-04T08:13:38;102880.63;;;16.90;53.52
75933;BME280;64803;52.356;5.310;2023-03-04T08:16:05;102915.59;;;17.01;53.59
75933;BME280;64803;52.356;5.310;2023-03-04T08:18:32;102919.16;;;16.94;53.26
75933;BME280;64803;52.356;5.310;2023-03-04T08:20:58;102895.56;;;16.70;53.53
75933;BME280;64803;52.356;5.310;2023-03-04T08:23:24;102915.75;;;16.83;53.48
75933;BME280;64803;52.356;5.310;2023-03-04T08:25:50;102916.75;;;16.82;53.57
75933;BME280;64803;52.356;5.310;2023-03-04T08:28:17;102885.22;;;16.73;53.12
75933;BME280;64803;52.356;5.310;2023-03-04T08:30:43;102916.44;;;16.94;53.23
75933;BME280;64803;52.356;5.310;2023-03-04T08:33:09;102908.97;;;16.88;52.97
75933;BME280;64803;52.356;5.310;2023-03-04T08:35:37;102908.59;;;16.82;53.28
75933;BME280;64803;52.356;5.310;2023-03-04T08:38:04;102919.50;;;16.91;53.56
75933;BME280;64803;52.356;5.310;2023-03-04T08:40:30;102911.53;;;16.89;52.99
75933;BME280;64803;52.356;5.310;2023-03-04T08:42:56;102921.19;;;16.92;53.05
75933;BME280;64803;52.356;5.310;2023-03-04T08:45:22;102918.28;;;16.93;53.10
75933;BME280;64803;52.356;5.310;2023-03-04T08:50:10;102937.03;;;9.29;78.19
75933;BME280;64803;52.356;5.310;2023-03-04T08:52:36;102923.13;;;7.57;90.96
75933;BME280;64803;52.356;5.310;2023-03-04T08:55:02;102945.00;;;7.12;95.74
75933;BME280;64803;52.356;5.310;2023-03-04T08:57:28;102945.94;;;6.59;100.00
75933;BME280;64803;52.356;5.310;2023-03-04T08:59:54;102941.31;;;6.49;100.00
75933;BME280;64803;52.356;5.310;2023-03-04T09:02:20;102935.31;;;6.72;100.00
75933;BME280;64803;52.356;5.310;2023-03-04T09:04:46;102938.34;;;6.53;100.00
75933;BME280;64803;52.356;5.310;2023-03-04T09:07:13;102939.56;;;6.62;100.00
75933;BME280;64803;52.356;5.310;2023-03-04T09:09:39;102957.25;;;6.63;100.00
75933;BME280;64803;52.356;5.310;2023-03-04T09:12:06;102942.78;;;6.67;100.00
75933;BME280;64803;52.356;5.310;2023-03-04T09:14:33;102940.91;;;6.55;100.00
75933;BME280;64803;52.356;5.310;2023-03-04T09:17:03;102938.53;;;6.50;100.00
75933;BME280;64803;52.356;5.310;2023-03-04T09:19:29;102940.25;;;6.78;100.00
75933;BME280;64803;52.356;5.310;2023-03-04T09:21:55;102934.91;;;6.91;100.00
75933;BME280;64803;52.356;5.310;2023-03-04T09:24:24;102927.56;;;6.94;100.00
75933;BME280;64803;52.356;5.310;2023-03-04T09:26:52;102931.75;;;7.11;100.00
75933;BME280;64803;52.356;5.310;2023-03-04T09:29:18;102931.31;;;7.17;98.77
75933;BME280;64803;52.356;5.310;2023-03-04T09:31:44;102930.88;;;6.85;100.00
75933;BME280;64803;52.356;5.310;2023-03-04T09:34:10;102927.19;;;6.73;100.00
75933;BME280;64803;52.356;5.310;2023-03-04T09:36:36;102927.84;;;6.77;100.00
75933;BME280;64803;52.356;5.310;2023-03-04T09:39:03;102932.03;;;6.81;100.00
75933;BME280;64803;52.356;5.310;2023-03-04T09:41:35;102926.56;;;6.82;100.00
75933;BME280;64803;52.356;5.310;2023-03-04T09:44:10;102903.47;;;6.69;100.00
75933;BME280;64803;52.356;5.310;2023-03-04T09:46:40;102937.66;;;6.76;100.00
75933;BME280;64803;52.356;5.310;2023-03-04T09:49:12;102921.78;;;6.88;100.00
75933;BME280;64803;52.356;5.310;2023-03-04T09:52:06;102924.25;;;7.03;100.00
75933;BME280;64803;52.356;5.310;2023-03-04T09:57:20;102912.72;;;7.03;99.96
75933;BME280;64803;52.356;5.310;2023-03-04T10:00:32;102912.13;;;7.37;100.00
75933;BME280;64803;52.356;5.310;2023-03-04T10:05:55;102905.03;;;7.48;97.37
75933;BME280;64803;52.356;5.310;2023-03-04T10:10:55;102902.94;;;7.41;97.94
75933;BME280;64803;52.356;5.310;2023-03-04T10:14:02;102899.69;;;7.73;95.72
75933;BME280;64803;52.356;5.310;2023-03-04T10:16:39;102912.00;;;7.63;96.44
75933;BME280;64803;52.356;5.310;2023-03-04T10:21:44;102856.53;;;7.42;96.47
75933;BME280;64803;52.356;5.310;2023-03-04T10:24:19;102898.41;;;7.66;96.86
75933;BME280;64803;52.356;5.310;2023-03-04T10:26:56;102887.09;;;7.50;98.14
75933;BME280;64803;52.356;5.310;2023-03-04T10:29:27;102901.41;;;7.24;100.00
75933;BME280;64803;52.356;5.310;2023-03-04T10:31:55;102899.16;;;6.93;100.00
75933;BME280;64803;52.356;5.310;2023-03-04T10:34:21;102883.22;;;6.79;100.00
75933;BME280;64803;52.356;5.310;2023-03-04T10:42:05;102913.69;;;6.50;100.00
75933;BME280;64803;52.356;5.310;2023-03-04T10:44:33;102925.53;;;6.32;100.00
75933;BME280;64803;52.356;5.310;2023-03-04T10:46:59;102923.69;;;6.06;100.00
75933;BME280;64803;52.356;5.310;2023-03-04T10:49:27;102915.00;;;6.16;100.00
75933;BME280;64803;52.356;5.310;2023-03-04T10:52:11;102928.84;;;5.95;100.00
75933;BME280;64803;52.356;5.310;2023-03-04T10:54:48;102922.91;;;6.18;100.00
75933;BME280;64803;52.356;5.310;2023-03-04T10:57:20;102924.50;;;6.34;100.00
75933;BME280;64803;52.356;5.310;2023-03-04T10:59:59;102923.44;;;6.37;100.00
75933;BME280;64803;52.356;5.310;2023-03-04T11:02:34;102918.03;;;6.51;100.00
75933;BME280;64803;52.356;5.310;2023-03-04T11:05:14;102919.47;;;6.56;100.00
75933;BME280;64803;52.356;5.310;2023-03-04T11:07:49;102910.22;;;6.74;100.00
75933;BME280;64803;52.356;5.310;2023-03-04T11:10:23;102909.09;;;6.64;100.00
75933;BME280;64803;52.356;5.310;2023-03-04T11:12:55;102899.88;;;6.82;100.00
75933;BME280;64803;52.356;5.310;2023-03-04T11:15:25;102916.75;;;6.83;100.00
75933;BME280;64803;52.356;5.310;2023-03-04T11:18:05;102903.78;;;7.16;100.00
75933;BME280;64803;52.356;5.310;2023-03-04T11:20:36;102906.22;;;7.19;100.00
75933;BME280;64803;52.356;5.310;2023-03-04T11:23:11;102901.72;;;7.32;100.00
75933;BME280;64803;52.356;5.310;2023-03-04T11:25:42;102887.38;;;7.71;100.00
75933;BME280;64803;52.356;5.310;2023-03-04T11:28:17;102880.13;;;7.60;100.00
75933;BME280;64803;52.356;5.310;2023-03-04T11:30:49;102880.50;;;7.79;99.10
75933;BME280;64803;52.356;5.310;2023-03-04T11:33:31;102893.41;;;7.49;100.00
75933;BME280;64803;52.356;5.310;2023-03-04T11:38:57;102867.84;;;7.33;100.00
75933;BME280;64803;52.356;5.310;2023-03-04T11:41:31;102883.13;;;7.43;100.00
75933;BME280;64803;52.356;5.310;2023-03-04T11:43:59;102884.44;;;7.25;100.00
75933;BME280;64803;52.356;5.310;2023-03-04T11:47:02;102888.59;;;7.29;98.71
75933;BME280;64803;52.356;5.310;2023-03-04T12:01:14;102878.88;;;7.41;97.51
75933;BME280;64803;52.356;5.310;2023-03-04T12:05:59;102870.34;;;7.84;99.29
75933;BME280;64803;52.356;5.310;2023-03-04T12:08:50;102873.69;;;7.75;95.12
75933;BME280;64803;52.356;5.310;2023-03-04T12:11:28;102872.66;;;7.53;92.42
75933;BME280;64803;52.356;5.310;2023-03-04T12:17:23;102866.25;;;7.91;93.67
75933;BME280;64803;52.356;5.310;2023-03-04T12:20:09;102868.47;;;7.61;91.69
75933;BME280;64803;52.356;5.310;2023-03-04T12:22:50;102868.50;;;7.36;92.59
75933;BME280;64803;52.356;5.310;2023-03-04T12:25:28;102862.09;;;7.14;94.15
75933;BME280;64803;52.356;5.310;2023-03-04T12:33:21;102864.41;;;6.80;100.00
75933;BME280;64803;52.356;5.310;2023-03-04T12:36:05;102869.59;;;6.57;100.00
75933;BME280;64803;52.356;5.310;2023-03-04T12:46:29;102862.53;;;6.56;100.00
75933;BME280;64803;52.356;5.310;2023-03-04T12:54:48;102847.56;;;7.05;98.48
75933;BME280;64803;52.356;5.310;2023-03-04T12:57:18;102845.41;;;7.10;96.10
75933;BME280;64803;52.356;5.310;2023-03-04T12:59:57;102843.59;;;7.23;94.23
75933;BME280;64803;52.356;5.310;2023-03-04T13:10:41;102829.59;;;7.07;91.31
75933;BME280;64803;52.356;5.310;2023-03-04T13:16:29;102830.44;;;7.20;88.81
75933;BME280;64803;52.356;5.310;2023-03-04T13:18:56;102826.00;;;6.96;89.78
75933;BME280;64803;52.356;5.310;2023-03-04T13:21:27;102822.34;;;6.97;87.17
75933;BME280;64803;52.356;5.310;2023-03-04T13:23:54;102816.56;;;7.03;88.31
75933;BME280;64803;52.356;5.310;2023-03-04T13:26:32;102825.13;;;7.08;85.04
75933;BME280;64803;52.356;5.310;2023-03-04T13:32:00;102816.47;;;7.04;84.69
75933;BME280;64803;52.356;5.310;2023-03-04T13:34:43;102820.63;;;7.08;85.70
75933;BME280;64803;52.356;5.310;2023-03-04T13:37:31;102818.69;;;6.98;83.65
75933;BME280;64803;52.356;5.310;2023-03-04T13:42:45;102809.19;;;7.06;85.28
75933;BME280;64803;52.356;5.310;2023-03-04T13:45:35;102798.41;;;6.95;82.98
75933;BME280;64803;52.356;5.310;2023-03-04T13:48:04;102802.91;;;7.07;84.85
75933;BME280;64803;52.356;5.310;2023-03-04T13:50:39;102767.31;;;6.94;81.38
75933;BME280;64803;52.356;5.310;2023-03-04T13:58:43;102800.75;;;7.00;80.53
75933;BME280;64803;52.356;5.310;2023-03-04T14:01:25;102794.00;;;6.94;80.60
75933;BME280;64803;52.356;5.310;2023-03-04T14:03:53;102800.13;;;7.09;79.87
75933;BME280;64803;52.356;5.310;2023-03-04T14:06:29;102803.94;;;7.17;80.66
75933;BME280;64803;52.356;5.310;2023-03-04T14:08:56;102792.63;;;7.01;79.14
75933;BME280;64803;52.356;5.310;2023-03-04T14:11:26;102802.38;;;7.02;81.48
75933;BME280;64803;52.356;5.310;2023-03-04T14:13:54;102795.81;;;7.06;83.06
75933;BME280;64803;52.356;5.310;2023-03-04T14:16:23;102798.19;;;6.85;85.35
75933;BME280;64803;52.356;5.310;2023-03-04T14:19:37;102795.75;;;6.82;86.15
75933;BME280;64803;52.356;5.310;2023-03-04T14:25:04;102808.31;;;6.55;88.14
75933;BME280;64803;52.356;5.310;2023-03-04T14:27:33;102786.41;;;6.50;88.99
75933;BME280;64803;52.356;5.310;2023-03-04T14:30:04;102797.06;;;6.50;88.63